createdAt,value
2022-11-15T06:32:40.194Z,20.17
2022-11-15T07:09:57.643Z,33.78
2022-11-15T07:13:19.699Z,25.33
2022-11-15T07:16:41.682Z,23.53
2022-11-15T07:20:03.229Z,26.17
2022-11-15T07:23:24.473Z,24.80
2022-11-15T07:26:45.494Z,19.30
2022-11-15T07:30:07.093Z,19.20
2022-11-15T07:33:28.485Z,18.02
2022-11-15T07:36:49.805Z,19.35
2022-11-15T07:40:12.439Z,17.10
2022-11-15T07:43:34.944Z,16.95
2022-11-15T07:46:56.094Z,16.85
2022-11-15T07:50:17.943Z,15.07
2022-11-15T07:54:07.783Z,17.05
2022-11-15T07:57:30.162Z,17.02
2022-11-15T08:00:51.248Z,15.50
2022-11-15T08:04:12.759Z,18.98
2022-11-15T08:07:34.098Z,20.58
2022-11-15T08:10:55.723Z,19.67
2022-11-15T08:14:16.799Z,19.05
2022-11-15T08:17:37.897Z,23.23
2022-11-15T08:21:03.178Z,24.85
2022-11-15T08:24:24.176Z,25.17
2022-11-15T08:27:46.036Z,32.22
2022-11-15T08:31:08.187Z,32.42
2022-11-15T08:34:30.107Z,21.93
2022-11-15T08:37:57.197Z,34.55
2022-11-15T08:41:33.078Z,30.42
2022-11-15T08:44:54.425Z,22.77
2022-11-15T08:48:15.310Z,26.95
2022-11-15T08:51:36.590Z,21.15
2022-11-15T08:54:59.355Z,24.95
2022-11-15T08:58:20.975Z,22.83
2022-11-15T09:01:42.350Z,25.80
2022-11-15T09:05:03.919Z,26.42
2022-11-15T09:08:46.553Z,24.30
2022-11-15T09:12:14.935Z,23.35
2022-11-15T09:15:36.228Z,24.95
2022-11-15T09:18:57.366Z,22.70
2022-11-15T09:22:18.246Z,19.42
2022-11-15T09:25:39.432Z,23.30
2022-11-15T09:29:02.374Z,28.10
2022-11-15T09:32:24.289Z,25.10
2022-11-15T09:35:45.455Z,20.52
2022-11-15T09:39:06.538Z,22.90
2022-11-15T09:42:58.588Z,20.33
2022-11-15T09:46:37.110Z,22.27
2022-11-15T09:50:21.365Z,21.40
2022-11-15T09:54:13.497Z,25.15
2022-11-15T09:57:19.638Z,28.80
2022-11-15T10:00:48.259Z,43.10
2022-11-15T10:03:52.502Z,34.38
2022-11-15T10:07:03.825Z,43.03
2022-11-15T10:10:40.180Z,36.22
2022-11-15T10:13:47.305Z,28.55
2022-11-15T10:17:19.152Z,32.93
2022-11-15T10:20:24.115Z,46.38
2022-11-15T10:23:28.720Z,28.40
2022-11-15T10:26:31.199Z,24.70
2022-11-15T10:29:34.477Z,21.90
2022-11-15T10:32:37.443Z,26.15
2022-11-15T10:35:40.159Z,20.27
2022-11-15T10:38:51.843Z,25.57
2022-11-15T10:41:55.419Z,22.60
2022-11-15T10:44:57.876Z,22.70
2022-11-15T10:48:15.534Z,27.20
2022-11-15T10:51:29.219Z,26.75
2022-11-15T10:54:37.166Z,24.77
2022-11-15T10:57:41.375Z,23.05
2022-11-15T11:00:47.937Z,25.73
2022-11-15T11:04:04.616Z,30.58
2022-11-15T11:07:21.965Z,34.92
2022-11-15T11:10:50.368Z,35.90
2022-11-15T11:13:50.163Z,34.30
2022-11-15T11:16:58.914Z,36.60
2022-11-15T11:20:19.942Z,24.70
2022-11-15T11:23:50.498Z,23.83
2022-11-15T11:27:18.772Z,29.52
2022-11-15T11:30:50.574Z,24.95
2022-11-15T11:34:08.068Z,29.88
2022-11-15T11:37:31.478Z,28.17
2022-11-15T11:40:46.133Z,23.58
2022-11-15T11:43:52.102Z,25.70
2022-11-15T11:47:01.862Z,25.45
2022-11-15T11:50:27.952Z,31.05
2022-11-15T11:53:49.049Z,28.93
2022-11-15T11:56:53.072Z,32.22
2022-11-15T12:00:03.150Z,26.13
2022-11-15T12:03:20.825Z,26.45
2022-11-15T12:06:48.437Z,26.83
2022-11-15T12:10:02.866Z,27.80
2022-11-15T12:13:12.074Z,32.90
2022-11-15T12:16:24.926Z,25.53
2022-11-15T12:19:29.768Z,27.27
2022-11-15T12:22:44.555Z,30.38
2022-11-15T12:25:52.771Z,23.93
2022-11-15T12:29:07.463Z,23.05
2022-11-15T12:32:37.007Z,31.63
2022-11-15T12:35:42.956Z,28.27
2022-11-15T12:39:03.937Z,29.05
2022-11-15T12:42:06.746Z,31.27
2022-11-15T12:45:45.973Z,38.90
2022-11-15T12:48:54.536Z,31.90
2022-11-15T12:52:00.010Z,29.58
2022-11-15T12:55:23.998Z,29.23
2022-11-15T12:58:43.635Z,27.83
2022-11-15T13:01:46.171Z,31.65
2022-11-15T13:04:50.265Z,29.90
2022-11-15T13:07:59.826Z,31.20
2022-11-15T13:11:41.297Z,29.63
2022-11-15T13:14:52.527Z,32.00
2022-11-15T13:17:57.749Z,32.90
2022-11-15T13:21:02.933Z,28.63
2022-11-15T13:24:11.173Z,28.08
2022-11-15T13:27:20.351Z,31.65
2022-11-15T13:30:26.231Z,33.57
2022-11-15T13:33:36.440Z,34.05
2022-11-15T13:36:39.110Z,32.70
2022-11-15T13:39:41.881Z,35.58
2022-11-15T13:42:46.010Z,36.25
2022-11-15T13:46:13.182Z,34.50
2022-11-15T13:49:15.567Z,34.38
2022-11-15T13:52:18.675Z,34.53
2022-11-15T13:55:23.781Z,31.63
2022-11-15T13:58:26.865Z,35.70
2022-11-15T14:01:32.692Z,31.53
2022-11-15T14:04:35.608Z,28.50
2022-11-15T14:07:41.833Z,31.08
2022-11-15T14:10:47.709Z,28.92
2022-11-15T14:14:08.492Z,28.42
2022-11-15T14:17:21.864Z,26.98
2022-11-15T14:20:29.510Z,34.92
2022-11-15T14:23:32.230Z,40.07
2022-11-15T14:26:35.883Z,47.63
2022-11-15T14:29:39.190Z,42.90
2022-11-15T14:32:48.873Z,36.97
2022-11-15T14:35:53.312Z,34.65
2022-11-15T14:38:56.010Z,31.67
2022-11-15T14:41:58.789Z,33.20
2022-11-15T14:45:01.379Z,50.13
2022-11-15T14:48:04.466Z,46.47
2022-11-15T14:51:25.402Z,48.65
2022-11-15T14:54:28.035Z,61.50
2022-11-15T14:57:31.108Z,64.45
2022-11-15T15:00:35.465Z,75.70
2022-11-15T15:03:38.198Z,57.23
2022-11-15T15:06:40.854Z,63.33
2022-11-15T15:09:44.112Z,40.10
2022-11-15T15:12:47.047Z,33.05
2022-11-15T15:15:50.636Z,33.95
2022-11-15T15:18:53.725Z,35.58
2022-11-15T15:21:56.066Z,34.83
2022-11-15T15:24:58.635Z,35.37
2022-11-15T15:28:01.372Z,34.13
2022-11-15T15:31:05.204Z,33.40
2022-11-15T15:34:12.132Z,34.77
2022-11-15T15:37:27.434Z,32.70
2022-11-15T15:40:32.257Z,34.90
2022-11-15T15:43:35.226Z,33.35
2022-11-15T15:46:37.633Z,31.17
2022-11-15T15:49:40.839Z,32.85
2022-11-15T15:52:43.538Z,50.92
2022-11-15T15:55:46.055Z,43.97
2022-11-15T15:58:49.098Z,51.20
2022-11-15T16:01:51.634Z,74.68
2022-11-15T16:04:54.244Z,64.40
2022-11-15T16:07:56.758Z,44.25
2022-11-15T16:11:00.116Z,44.63
2022-11-15T16:14:02.778Z,43.08
2022-11-15T16:17:05.272Z,50.20
2022-11-15T16:20:08.223Z,41.67
2022-11-15T16:23:15.891Z,86.13
2022-11-15T16:26:22.942Z,148.20
2022-11-15T16:29:25.517Z,101.13
2022-11-15T16:32:28.266Z,73.40
2022-11-15T16:35:31.072Z,62.13
2022-11-15T16:38:33.844Z,52.03
2022-11-15T16:41:36.950Z,50.60
2022-11-15T16:44:39.401Z,59.05
2022-11-15T16:47:42.091Z,59.70
2022-11-15T16:50:46.918Z,54.22
2022-11-15T16:53:50.098Z,56.92
2022-11-15T16:56:53.822Z,59.43
2022-11-15T16:59:56.634Z,58.13
2022-11-15T17:02:59.694Z,54.65
2022-11-15T17:06:02.150Z,46.90
2022-11-15T17:09:04.854Z,56.70
2022-11-15T17:12:08.941Z,147.90
2022-11-15T17:15:13.200Z,65.90
2022-11-15T17:18:15.797Z,49.78
2022-11-15T17:21:22.006Z,56.15
2022-11-15T17:24:24.815Z,52.25
2022-11-15T17:27:27.367Z,46.60
2022-11-15T17:30:30.526Z,44.58
2022-11-15T17:33:33.213Z,71.30
2022-11-15T17:36:36.234Z,184.07
2022-11-15T17:39:38.798Z,100.75
2022-11-15T17:42:42.264Z,91.72
2022-11-15T17:45:45.247Z,132.75
2022-11-15T17:48:48.858Z,72.40
2022-11-15T17:51:52.974Z,64.88
2022-11-15T17:54:55.370Z,48.40
2022-11-15T17:57:58.222Z,52.80
2022-11-15T18:01:07.826Z,51.83
2022-11-15T18:04:10.876Z,43.65
2022-11-15T18:07:14.132Z,50.30
2022-11-15T18:10:17.705Z,46.85
2022-11-15T18:13:20.141Z,43.95
2022-11-15T18:16:27.727Z,48.60
2022-11-15T18:19:30.379Z,47.60
2022-11-15T18:22:33.341Z,44.28
2022-11-15T18:25:35.784Z,47.22
2022-11-15T18:28:40.866Z,48.60
2022-11-15T18:31:47.536Z,50.17
2022-11-15T18:34:50.476Z,56.55
2022-11-15T18:37:55.523Z,57.50
2022-11-15T18:41:09.858Z,51.65
2022-11-15T18:44:12.719Z,49.03
2022-11-15T18:47:15.327Z,50.58
2022-11-15T18:50:17.921Z,43.53
2022-11-15T18:53:20.237Z,128.85
2022-11-15T18:56:24.573Z,148.95
2022-11-15T18:59:27.842Z,77.70
2022-11-15T19:02:30.479Z,55.45
2022-11-15T19:05:35.288Z,51.38
2022-11-15T19:08:38.702Z,96.57
2022-11-15T19:11:41.815Z,82.35
2022-11-15T19:14:44.378Z,71.28
2022-11-15T19:17:46.841Z,71.00
2022-11-15T19:20:50.533Z,54.38
2022-11-15T19:23:54.247Z,44.03
2022-11-15T19:26:57.080Z,49.90
2022-11-15T19:29:59.712Z,47.17
2022-11-15T19:33:02.442Z,45.63
2022-11-15T19:36:17.044Z,58.70
2022-11-15T19:39:20.082Z,59.37
2022-11-15T19:42:22.672Z,52.70
2022-11-15T19:45:25.730Z,50.08
2022-11-15T19:48:29.898Z,62.38
2022-11-15T19:51:33.093Z,55.45
2022-11-15T19:54:36.326Z,60.45
2022-11-15T19:57:38.962Z,63.55
2022-11-15T20:00:42.396Z,67.57
2022-11-15T20:03:50.225Z,75.60
2022-11-15T20:06:52.790Z,82.90
2022-11-15T20:09:55.574Z,66.13
2022-11-15T20:12:58.426Z,66.22
2022-11-15T20:16:01.232Z,60.22
2022-11-15T20:19:03.834Z,51.75
2022-11-15T20:22:06.766Z,49.25
2022-11-15T20:25:10.059Z,58.45
2022-11-15T20:28:21.169Z,52.42
2022-11-15T20:31:23.520Z,49.87
2022-11-15T20:34:26.210Z,58.08
2022-11-15T20:37:28.878Z,52.78
2022-11-15T20:40:33.050Z,53.43
2022-11-15T20:43:35.820Z,54.00
2022-11-15T20:46:38.654Z,51.10
2022-11-15T20:49:41.396Z,54.17
2022-11-15T20:52:44.840Z,58.10
2022-11-15T20:55:49.704Z,53.03
2022-11-15T20:58:53.641Z,56.83
2022-11-15T21:01:56.018Z,54.93
2022-11-15T21:04:59.165Z,56.65
2022-11-15T21:08:01.776Z,57.80
2022-11-15T21:11:27.115Z,57.77
2022-11-15T21:14:30.031Z,63.42
2022-11-15T21:17:32.437Z,67.32
2022-11-15T21:20:35.200Z,66.25
2022-11-15T21:23:38.146Z,70.45
2022-11-15T21:26:40.813Z,65.85
2022-11-15T21:29:45.756Z,66.15
2022-11-15T21:32:48.501Z,65.83
2022-11-15T21:35:52.002Z,71.72
2022-11-15T21:38:54.499Z,76.47
2022-11-15T21:41:57.234Z,70.10
2022-11-15T21:44:59.736Z,68.18
2022-11-15T21:48:02.524Z,63.78
2022-11-15T21:51:08.488Z,61.42
2022-11-15T21:54:11.197Z,62.08
2022-11-15T21:57:13.533Z,52.63
2022-11-15T22:00:36.122Z,58.10
2022-11-15T22:03:38.636Z,62.10
2022-11-15T22:06:41.423Z,59.80
2022-11-15T22:09:44.070Z,57.00
2022-11-15T22:12:47.077Z,66.40
2022-11-15T22:15:51.368Z,57.55
2022-11-15T22:18:54.306Z,56.92
2022-11-15T22:21:56.939Z,57.05
2022-11-15T22:25:00.162Z,54.17
2022-11-15T22:28:02.750Z,56.15
2022-11-15T22:31:06.458Z,52.47
2022-11-15T22:34:09.385Z,54.57
2022-11-15T22:37:20.492Z,58.03
2022-11-15T22:40:23.902Z,58.13
2022-11-15T22:43:27.676Z,56.03
2022-11-15T22:46:30.343Z,57.95
2022-11-15T22:49:33.030Z,54.22
2022-11-15T22:52:35.782Z,54.80
2022-11-15T22:55:39.646Z,52.00
2022-11-15T22:58:42.086Z,61.28
2022-11-15T23:01:45.014Z,61.35
2022-11-15T23:04:47.429Z,53.03
2022-11-15T23:07:50.114Z,56.88
2022-11-15T23:11:12.277Z,53.63
2022-11-15T23:14:34.685Z,55.43
2022-11-15T23:17:57.112Z,53.80
2022-11-15T23:21:43.744Z,51.90
2022-11-15T23:25:06.868Z,60.28
2022-11-15T23:28:09.727Z,56.70
2022-11-15T23:31:30.458Z,63.67
2022-11-15T23:34:37.025Z,58.47
2022-11-15T23:37:39.582Z,59.03
2022-11-15T23:40:42.693Z,56.42
2022-11-15T23:43:45.760Z,54.75
2022-11-15T23:46:48.505Z,60.33
2022-11-15T23:49:51.178Z,62.03
2022-11-15T23:52:53.729Z,62.60
2022-11-15T23:56:07.830Z,61.60
2022-11-15T23:59:10.758Z,63.17
